sensor_id;sensor_type;location;lat;lon;timestamp;pressure;altitude;pressure_sealevel;temperature;humidity
69842;BME280;57138;51.326;-0.068;2023-01-06T00:01:53;99583.34;;;9.49;100.00
69842;BME280;57138;51.326;-0.068;2023-01-06T00:04:18;99577.97;;;9.42;100.00
69842;BME280;57138;51.326;-0.068;2023-01-06T00:06:44;99564.66;;;9.49;100.00
69842;BME280;57138;51.326;-0.068;2023-01-06T00:09:09;99565.69;;;9.48;100.00
69842;BME280;57138;51.326;-0.068;2023-01-06T00:11:35;99567.31;;;9.49;100.00
69842;BME280;57138;51.326;-0.068;2023-01-06T00:14:01;99580.94;;;9.54;100.00
69842;BME280;57138;51.326;-0.068;2023-01-06T00:16:27;99578.88;;;9.56;100.00
69842;BME280;57138;51.326;-0.068;2023-01-06T00:18:57;99562.88;;;9.56;100.00
69842;BME280;57138;51.326;-0.068;2023-01-06T00:21:24;99543.75;;;9.46;100.00
69842;BME280;57138;51.326;-0.068;2023-01-06T00:23:50;99550.13;;;9.58;100.00
69842;BME280;57138;51.326;-0.068;2023-01-06T00:26:15;99552.19;;;9.56;100.00
69842;BME280;57138;51.326;-0.068;2023-01-06T00:28:41;99545.19;;;9.55;100.00
69842;BME280;57138;51.326;-0.068;2023-01-06T00:31:09;99561.19;;;9.55;100.00
69842;BME280;57138;51.326;-0.068;2023-01-06T00:33:35;99532.03;;;9.47;100.00
69842;BME280;57138;51.326;-0.068;2023-01-06T00:36:00;99544.78;;;9.58;100.00
69842;BME280;57138;51.326;-0.068;2023-01-06T00:38:26;99537.00;;;9.57;100.00
69842;BME280;57138;51.326;-0.068;2023-01-06T00:40:51;99536.38;;;9.54;100.00
69842;BME280;57138;51.326;-0.068;2023-01-06T00:43:17;99539.03;;;9.48;100.00
69842;BME280;57138;51.326;-0.068;2023-01-06T00:45:42;99527.31;;;9.49;100.00
69842;BME280;57138;51.326;-0.068;2023-01-06T00:48:07;99522.19;;;9.47;100.00
69842;BME280;57138;51.326;-0.068;2023-01-06T00:50:33;99544.56;;;9.46;100.00
69842;BME280;57138;51.326;-0.068;2023-01-06T00:52:58;99519.91;;;9.44;100.00
69842;BME280;57138;51.326;-0.068;2023-01-06T00:55:24;99511.28;;;9.49;100.00
69842;BME280;57138;51.326;-0.068;2023-01-06T00:57:52;99502.06;;;9.45;100.00
69842;BME280;57138;51.326;-0.068;2023-01-06T01:00:18;99521.97;;;9.49;100.00
69842;BME280;57138;51.326;-0.068;2023-01-06T01:02:44;99519.72;;;9.46;100.00
69842;BME280;57138;51.326;-0.068;2023-01-06T01:05:11;99504.09;;;9.43;100.00
69842;BME280;57138;51.326;-0.068;2023-01-06T01:07:37;99520.56;;;9.53;100.00
69842;BME280;57138;51.326;-0.068;2023-01-06T01:10:05;99512.34;;;9.54;100.00
69842;BME280;57138;51.326;-0.068;2023-01-06T01:12:31;99506.59;;;9.51;100.00
69842;BME280;57138;51.326;-0.068;2023-01-06T01:14:56;99502.28;;;9.57;100.00
69842;BME280;57138;51.326;-0.068;2023-01-06T01:17:24;99505.81;;;9.57;100.00
69842;BME280;57138;51.326;-0.068;2023-01-06T01:19:51;99515.25;;;9.60;100.00
69842;BME280;57138;51.326;-0.068;2023-01-06T01:22:19;99510.75;;;9.60;100.00
69842;BME280;57138;51.326;-0.068;2023-01-06T01:24:44;99507.22;;;9.60;100.00
69842;BME280;57138;51.326;-0.068;2023-01-06T01:27:10;99510.75;;;9.60;100.00
69842;BME280;57138;51.326;-0.068;2023-01-06T01:29:35;99509.47;;;9.56;100.00
69842;BME280;57138;51.326;-0.068;2023-01-06T01:32:01;99502.09;;;9.58;100.00
69842;BME280;57138;51.326;-0.068;2023-01-06T01:34:27;99499.00;;;9.54;100.00
69842;BME280;57138;51.326;-0.068;2023-01-06T01:36:53;99499.63;;;9.57;100.00
69842;BME280;57138;51.326;-0.068;2023-01-06T01:39:22;99497.81;;;9.57;100.00
69842;BME280;57138;51.326;-0.068;2023-01-06T01:41:48;99509.09;;;9.59;100.00
69842;BME280;57138;51.326;-0.068;2023-01-06T01:47:11;99502.09;;;9.58;100.00
69842;BME280;57138;51.326;-0.068;2023-01-06T01:49:39;99484.47;;;9.57;100.00
69842;BME280;57138;51.326;-0.068;2023-01-06T01:52:07;99489.41;;;9.60;100.00
69842;BME280;57138;51.326;-0.068;2023-01-06T01:54:35;99487.75;;;9.59;100.00
69842;BME280;57138;51.326;-0.068;2023-01-06T01:57:12;99481.97;;;9.56;100.00
69842;BME280;57138;51.326;-0.068;2023-01-06T01:59:41;99501.69;;;9.61;100.00
69842;BME280;57138;51.326;-0.068;2023-01-06T02:02:07;99504.38;;;9.61;100.00
69842;BME280;57138;51.326;-0.068;2023-01-06T02:04:36;99501.69;;;9.61;100.00
69842;BME280;57138;51.326;-0.068;2023-01-06T02:07:03;99517.72;;;9.61;100.00
69842;BME280;57138;51.326;-0.068;2023-01-06T02:09:36;99504.16;;;9.63;100.00
69842;BME280;57138;51.326;-0.068;2023-01-06T02:12:04;99526.34;;;9.63;100.00
69842;BME280;57138;51.326;-0.068;2023-01-06T02:14:30;99511.16;;;9.57;100.00
69842;BME280;57138;51.326;-0.068;2023-01-06T02:19:58;99549.53;;;9.63;100.00
69842;BME280;57138;51.326;-0.068;2023-01-06T02:36:47;99592.34;;;9.13;100.00
69842;BME280;57138;51.326;-0.068;2023-01-06T02:39:45;99596.19;;;9.04;100.00
69842;BME280;57138;51.326;-0.068;2023-01-06T02:42:48;99582.63;;;8.98;100.00
69842;BME280;57138;51.326;-0.068;2023-01-06T02:45:34;99591.78;;;8.89;100.00
69842;BME280;57138;51.326;-0.068;2023-01-06T02:48:27;99609.56;;;8.82;100.00
69842;BME280;57138;51.326;-0.068;2023-01-06T02:51:15;99625.50;;;8.75;100.00
69842;BME280;57138;51.326;-0.068;2023-01-06T02:56:29;99628.63;;;8.57;100.00
69842;BME280;57138;51.326;-0.068;2023-01-06T02:59:10;99614.41;;;8.50;100.00
69842;BME280;57138;51.326;-0.068;2023-01-06T03:01:41;99622.47;;;8.42;100.00
69842;BME280;57138;51.326;-0.068;2023-01-06T03:04:12;99631.84;;;8.38;100.00
69842;BME280;57138;51.326;-0.068;2023-01-06T03:06:43;99633.66;;;8.31;100.00
69842;BME280;57138;51.326;-0.068;2023-01-06T03:09:13;99633.81;;;8.29;100.00
69842;BME280;57138;51.326;-0.068;2023-01-06T03:11:40;99632.09;;;8.21;100.00
69842;BME280;57138;51.326;-0.068;2023-01-06T03:16:37;99648.72;;;8.08;100.00
69842;BME280;57138;51.326;-0.068;2023-01-06T03:19:03;99644.34;;;8.01;100.00
69842;BME280;57138;51.326;-0.068;2023-01-06T03:21:32;99651.97;;;7.89;99.91
69842;BME280;57138;51.326;-0.068;2023-01-06T03:23:59;99672.81;;;7.85;99.81
69842;BME280;57138;51.326;-0.068;2023-01-06T03:26:25;99670.25;;;7.77;99.50
69842;BME280;57138;51.326;-0.068;2023-01-06T03:28:51;99681.53;;;7.79;99.54
69842;BME280;57138;51.326;-0.068;2023-01-06T03:39:25;99685.09;;;7.56;99.71
69842;BME280;57138;51.326;-0.068;2023-01-06T03:45:28;99689.56;;;7.41;99.22
69842;BME280;57138;51.326;-0.068;2023-01-06T03:48:12;99683.69;;;7.31;99.40
69842;BME280;57138;51.326;-0.068;2023-01-06T03:51:04;99699.00;;;7.29;99.44
69842;BME280;57138;51.326;-0.068;2023-01-06T03:53:45;99699.69;;;7.23;99.44
69842;BME280;57138;51.326;-0.068;2023-01-06T03:56:29;99695.94;;;7.17;98.80
69842;BME280;57138;51.326;-0.068;2023-01-06T03:59:00;99696.47;;;7.12;99.31
69842;BME280;57138;51.326;-0.068;2023-01-06T04:01:27;99690.69;;;7.09;99.28
69842;BME280;57138;51.326;-0.068;2023-01-06T04:03:54;99688.38;;;7.06;99.44
69842;BME280;57138;51.326;-0.068;2023-01-06T04:06:20;99693.22;;;7.02;99.56
69842;BME280;57138;51.326;-0.068;2023-01-06T04:08:45;99688.28;;;6.99;99.10
69842;BME280;57138;51.326;-0.068;2023-01-06T04:11:11;99686.50;;;6.91;99.51
69842;BME280;57138;51.326;-0.068;2023-01-06T04:13:55;99689.34;;;6.90;99.17
69842;BME280;57138;51.326;-0.068;2023-01-06T04:16:20;99683.28;;;6.81;99.14
69842;BME280;57138;51.326;-0.068;2023-01-06T04:18:46;99688.41;;;6.82;99.28
69842;BME280;57138;51.326;-0.068;2023-01-06T04:21:11;99687.09;;;6.78;99.18
69842;BME280;57138;51.326;-0.068;2023-01-06T04:23:36;99688.09;;;6.77;99.22
69842;BME280;57138;51.326;-0.068;2023-01-06T04:26:02;99684.97;;;6.74;99.01
69842;BME280;57138;51.326;-0.068;2023-01-06T04:28:27;99687.16;;;6.70;99.00
69842;BME280;57138;51.326;-0.068;2023-01-06T04:30:56;99689.31;;;6.66;99.11
69842;BME280;57138;51.326;-0.068;2023-01-06T04:33:22;99695.84;;;6.64;99.37
69842;BME280;57138;51.326;-0.068;2023-01-06T04:35:47;99698.00;;;6.60;99.48
69842;BME280;57138;51.326;-0.068;2023-01-06T04:38:12;99695.69;;;6.57;99.02
69842;BME280;57138;51.326;-0.068;2023-01-06T04:40:38;99693.56;;;6.53;99.13
69842;BME280;57138;51.326;-0.068;2023-01-06T04:43:03;99703.53;;;6.51;99.37
69842;BME280;57138;51.326;-0.068;2023-01-06T04:45:29;99706.53;;;6.47;98.69
69842;BME280;57138;51.326;-0.068;2023-01-06T04:47:54;99713.88;;;6.45;99.32
69842;BME280;57138;51.326;-0.068;2023-01-06T04:50:19;99708.22;;;6.40;99.27
69842;BME280;57138;51.326;-0.068;2023-01-06T04:52:45;99713.38;;;6.42;99.44
69842;BME280;57138;51.326;-0.068;2023-01-06T04:55:10;99711.59;;;6.34;98.95
69842;BME280;57138;51.326;-0.068;2023-01-06T04:57:36;99721.84;;;6.37;99.10
69842;BME280;57138;51.326;-0.068;2023-01-06T05:00:02;99715.25;;;6.33;99.34
69842;BME280;57138;51.326;-0.068;2023-01-06T05:02:28;99727.88;;;6.31;98.74
69842;BME280;57138;51.326;-0.068;2023-01-06T05:04:53;99722.91;;;6.28;98.77
69842;BME280;57138;51.326;-0.068;2023-01-06T05:07:19;99726.56;;;6.27;98.66
69842;BME280;57138;51.326;-0.068;2023-01-06T05:09:44;99730.56;;;6.23;98.65
69842;BME280;57138;51.326;-0.068;2023-01-06T05:12:10;99732.41;;;6.22;98.83
69842;BME280;57138;51.326;-0.068;2023-01-06T05:14:35;99736.22;;;6.20;98.92
69842;BME280;57138;51.326;-0.068;2023-01-06T05:17:00;99739.03;;;6.18;98.34
69842;BME280;57138;51.326;-0.068;2023-01-06T05:19:26;99734.06;;;6.15;98.47
69842;BME280;57138;51.326;-0.068;2023-01-06T05:21:51;99731.59;;;6.14;98.85
69842;BME280;57138;51.326;-0.068;2023-01-06T05:24:16;99737.91;;;6.13;98.38
69842;BME280;57138;51.326;-0.068;2023-01-06T05:26:42;99743.41;;;6.11;98.93
69842;BME280;57138;51.326;-0.068;2023-01-06T05:29:09;99737.56;;;6.07;98.74
69842;BME280;57138;51.326;-0.068;2023-01-06T05:31:36;99752.34;;;6.10;99.09
69842;BME280;57138;51.326;-0.068;2023-01-06T05:34:02;99751.53;;;6.09;98.95
69842;BME280;57138;51.326;-0.068;2023-01-06T05:36:27;99758.97;;;6.06;99.08
69842;BME280;57138;51.326;-0.068;2023-01-06T05:38:53;99764.13;;;6.07;98.58
69842;BME280;57138;51.326;-0.068;2023-01-06T05:41:19;99758.16;;;6.05;98.42
69842;BME280;57138;51.326;-0.068;2023-01-06T05:43:44;99769.75;;;6.04;99.06
69842;BME280;57138;51.326;-0.068;2023-01-06T05:46:10;99766.47;;;6.02;98.12
69842;BME280;57138;51.326;-0.068;2023-01-06T05:48:37;99770.09;;;6.01;98.49
69842;BME280;57138;51.326;-0.068;2023-01-06T05:51:05;99764.16;;;5.99;98.34
69842;BME280;57138;51.326;-0.068;2023-01-06T05:53:36;99768.63;;;5.99;98.66
69842;BME280;57138;51.326;-0.068;2023-01-06T05:56:07;99772.28;;;5.98;98.60
69842;BME280;57138;51.326;-0.068;2023-01-06T05:58:33;99762.78;;;5.95;98.73
69842;BME280;57138;51.326;-0.068;2023-01-06T06:00:59;99773.56;;;5.93;98.42
69842;BME280;57138;51.326;-0.068;2023-01-06T06:03:25;99767.31;;;5.86;98.38
69842;BME280;57138;51.326;-0.068;2023-01-06T06:05:50;99767.78;;;5.90;98.33
69842;BME280;57138;51.326;-0.068;2023-01-06T06:08:16;99766.13;;;5.89;98.87
69842;BME280;57138;51.326;-0.068;2023-01-06T06:10:41;99754.53;;;5.82;98.64
69842;BME280;57138;51.326;-0.068;2023-01-06T06:13:07;99752.56;;;5.75;98.00
69842;BME280;57138;51.326;-0.068;2023-01-06T06:15:32;99765.50;;;5.79;98.04
69842;BME280;57138;51.326;-0.068;2023-01-06T06:17:58;99767.50;;;5.76;98.18
69842;BME280;57138;51.326;-0.068;2023-01-06T06:20:25;99771.94;;;5.76;98.70
69842;BME280;57138;51.326;-0.068;2023-01-06T06:22:50;99762.19;;;5.68;98.72
69842;BME280;57138;51.326;-0.068;2023-01-06T06:25:15;99771.63;;;5.71;98.21
69842;BME280;57138;51.326;-0.068;2023-01-06T06:27:41;99775.44;;;5.68;98.81
69842;BME280;57138;51.326;-0.068;2023-01-06T06:30:07;99774.78;;;5.66;98.95
69842;BME280;57138;51.326;-0.068;2023-01-06T06:32:32;99769.16;;;5.61;98.99
69842;BME280;57138;51.326;-0.068;2023-01-06T06:34:59;99772.00;;;5.60;98.85
69842;BME280;57138;51.326;-0.068;2023-01-06T06:37:24;99776.28;;;5.61;99.27
69842;BME280;57138;51.326;-0.068;2023-01-06T06:39:49;99774.97;;;5.56;98.72
69842;BME280;57138;51.326;-0.068;2023-01-06T06:42:15;99772.66;;;5.53;99.38
69842;BME280;57138;51.326;-0.068;2023-01-06T06:44:40;99782.41;;;5.53;98.73
69842;BME280;57138;51.326;-0.068;2023-01-06T06:47:05;99780.09;;;5.50;98.87
69842;BME280;57138;51.326;-0.068;2023-01-06T06:49:31;99782.75;;;5.50;99.56
69842;BME280;57138;51.326;-0.068;2023-01-06T06:51:57;99786.91;;;5.44;98.77
69842;BME280;57138;51.326;-0.068;2023-01-06T06:54:23;99793.19;;;5.43;99.22
69842;BME280;57138;51.326;-0.068;2023-01-06T06:56:48;99784.06;;;5.37;99.00
69842;BME280;57138;51.326;-0.068;2023-01-06T06:59:14;99790.72;;;5.42;99.12
69842;BME280;57138;51.326;-0.068;2023-01-06T07:01:39;99793.53;;;5.40;99.36
69842;BME280;57138;51.326;-0.068;2023-01-06T07:04:04;99790.38;;;5.36;99.59
69842;BME280;57138;51.326;-0.068;2023-01-06T07:06:30;99791.22;;;5.37;99.96
69842;BME280;57138;51.326;-0.068;2023-01-06T07:08:56;99788.06;;;5.33;99.73
69842;BME280;57138;51.326;-0.068;2023-01-06T07:11:21;99796.03;;;5.33;99.85
69842;BME280;57138;51.326;-0.068;2023-01-06T07:13:47;99797.81;;;5.33;99.90
69842;BME280;57138;51.326;-0.068;2023-01-06T07:16:12;99801.81;;;5.29;99.75
69842;BME280;57138;51.326;-0.068;2023-01-06T07:18:38;99800.16;;;5.28;99.81
69842;BME280;57138;51.326;-0.068;2023-01-06T07:21:04;99799.31;;;5.27;99.98
69842;BME280;57138;51.326;-0.068;2023-01-06T07:23:30;99799.16;;;5.20;99.88
69842;BME280;57138;51.326;-0.068;2023-01-06T07:25:57;99807.78;;;5.22;99.59
69842;BME280;57138;51.326;-0.068;2023-01-06T07:28:23;99806.25;;;5.20;100.00
69842;BME280;57138;51.326;-0.068;2023-01-06T07:30:50;99814.22;;;5.20;100.00
69842;BME280;57138;51.326;-0.068;2023-01-06T07:33:16;99813.88;;;5.15;100.00
69842;BME280;57138;51.326;-0.068;2023-01-06T07:35:42;99826.31;;;5.14;100.00
69842;BME280;57138;51.326;-0.068;2023-01-06T07:38:08;99818.53;;;5.13;100.00
69842;BME280;57138;51.326;-0.068;2023-01-06T07:40:34;99830.78;;;5.14;100.00
69842;BME280;57138;51.326;-0.068;2023-01-06T07:43:07;99822.16;;;5.12;100.00
69842;BME280;57138;51.326;-0.068;2023-01-06T07:45:34;99829.13;;;5.13;100.00
69842;BME280;57138;51.326;-0.068;2023-01-06T07:47:59;99834.44;;;5.13;100.00
69842;BME280;57138;51.326;-0.068;2023-01-06T07:50:26;99830.28;;;5.10;100.00
69842;BME280;57138;51.326;-0.068;2023-01-06T07:52:51;99837.41;;;5.10;100.00
69842;BME280;57138;51.326;-0.068;2023-01-06T07:55:17;99832.59;;;5.05;100.00
69842;BME280;57138;51.326;-0.068;2023-01-06T07:57:42;99844.00;;;5.06;100.00
69842;BME280;57138;51.326;-0.068;2023-01-06T08:00:08;99835.41;;;5.03;100.00
69842;BME280;57138;51.326;-0.068;2023-01-06T08:02:33;99848.34;;;5.07;100.00
69842;BME280;57138;51.326;-0.068;2023-01-06T08:04:59;99851.63;;;5.09;100.00
69842;BME280;57138;51.326;-0.068;2023-01-06T08:07:24;99844.34;;;5.02;100.00
69842;BME280;57138;51.326;-0.068;2023-01-06T08:09:49;99846.50;;;5.07;100.00
69842;BME280;57138;51.326;-0.068;2023-01-06T08:12:15;99857.09;;;5.07;100.00
69842;BME280;57138;51.326;-0.068;2023-01-06T08:14:40;99854.78;;;5.04;100.00
69842;BME280;57138;51.326;-0.068;2023-01-06T08:17:06;99846.31;;;5.00;100.00
69842;BME280;57138;51.326;-0.068;2023-01-06T08:19:31;99862.41;;;5.07;100.00
69842;BME280;57138;51.326;-0.068;2023-01-06T08:21:57;99859.59;;;5.09;100.00
69842;BME280;57138;51.326;-0.068;2023-01-06T08:24:22;99857.59;;;5.11;100.00
69842;BME280;57138;51.326;-0.068;2023-01-06T08:26:48;99864.56;;;5.12;100.00
69842;BME280;57138;51.326;-0.068;2023-01-06T08:29:13;99860.94;;;5.13;100.00
69842;BME280;57138;51.326;-0.068;2023-01-06T08:31:39;99852.28;;;5.11;100.00
69842;BME280;57138;51.326;-0.068;2023-01-06T08:34:04;99851.97;;;5.14;100.00
69842;BME280;57138;51.326;-0.068;2023-01-06T08:36:30;99850.00;;;5.16;100.00
69842;BME280;57138;51.326;-0.068;2023-01-06T08:38:55;99850.00;;;5.16;100.00
69842;BME280;57138;51.326;-0.068;2023-01-06T08:41:21;99859.75;;;5.15;100.00
69842;BME280;57138;51.326;-0.068;2023-01-06T08:43:46;99860.63;;;5.16;100.00
69842;BME280;57138;51.326;-0.068;2023-01-06T08:46:17;99861.59;;;5.15;100.00
69842;BME280;57138;51.326;-0.068;2023-01-06T08:48:44;99866.72;;;5.16;100.00
69842;BME280;57138;51.326;-0.068;2023-01-06T08:51:13;99866.91;;;5.15;100.00
69842;BME280;57138;51.326;-0.068;2023-01-06T08:53:39;99877.50;;;5.23;100.00
69842;BME280;57138;51.326;-0.068;2023-01-06T08:56:13;99877.50;;;5.23;100.00
69842;BME280;57138;51.326;-0.068;2023-01-06T08:58:40;99875.19;;;5.28;100.00
69842;BME280;57138;51.326;-0.068;2023-01-06T09:01:05;99879.84;;;5.34;100.00
69842;BME280;57138;51.326;-0.068;2023-01-06T09:03:30;99886.50;;;5.38;100.00
69842;BME280;57138;51.326;-0.068;2023-01-06T09:05:56;99891.47;;;5.42;100.00
69842;BME280;57138;51.326;-0.068;2023-01-06T09:08:23;99886.16;;;5.42;100.00
69842;BME280;57138;51.326;-0.068;2023-01-06T09:10:49;99878.88;;;5.44;100.00
69842;BME280;57138;51.326;-0.068;2023-01-06T09:13:15;99881.03;;;5.48;100.00
69842;BME280;57138;51.326;-0.068;2023-01-06T09:15:41;99892.47;;;5.49;100.00
69842;BME280;57138;51.326;-0.068;2023-01-06T09:18:08;99885.50;;;5.48;100.00
69842;BME280;57138;51.326;-0.068;2023-01-06T09:20:35;99883.19;;;5.53;100.00
69842;BME280;57138;51.326;-0.068;2023-01-06T09:23:00;99889.84;;;5.57;100.00
69842;BME280;57138;51.326;-0.068;2023-01-06T09:25:27;99878.25;;;5.58;100.00
69842;BME280;57138;51.326;-0.068;2023-01-06T09:27:53;99890.16;;;5.62;100.00
69842;BME280;57138;51.326;-0.068;2023-01-06T09:30:18;99880.25;;;5.64;100.00
69842;BME280;57138;51.326;-0.068;2023-01-06T09:32:43;99871.94;;;5.67;100.00
69842;BME280;57138;51.326;-0.068;2023-01-06T09:35:09;99874.28;;;5.70;100.00
69842;BME280;57138;51.326;-0.068;2023-01-06T09:37:35;99873.94;;;5.73;100.00
69842;BME280;57138;51.326;-0.068;2023-01-06T09:40:00;99873.63;;;5.76;100.00
69842;BME280;57138;51.326;-0.068;2023-01-06T09:45:33;99876.09;;;5.78;100.00
69842;BME280;57138;51.326;-0.068;2023-01-06T09:48:02;99886.03;;;5.84;100.00
69842;BME280;57138;51.326;-0.068;2023-01-06T09:50:42;99878.41;;;5.89;99.95
69842;BME280;57138;51.326;-0.068;2023-01-06T09:53:20;99873.75;;;5.91;99.94
69842;BME280;57138;51.326;-0.068;2023-01-06T09:55:57;99870.28;;;5.91;99.53
69842;BME280;57138;51.326;-0.068;2023-01-06T09:58:34;99875.25;;;5.94;99.93
69842;BME280;57138;51.326;-0.068;2023-01-06T10:01:07;99869.09;;;5.93;99.51
69842;BME280;57138;51.326;-0.068;2023-01-06T10:03:34;99874.97;;;5.97;99.60
69842;BME280;57138;51.326;-0.068;2023-01-06T10:14:29;99897.50;;;6.18;100.00
69842;BME280;57138;51.326;-0.068;2023-01-06T10:24:52;99881.53;;;6.34;99.58
69842;BME280;57138;51.326;-0.068;2023-01-06T10:27:34;99879.03;;;6.41;99.68
69842;BME280;57138;51.326;-0.068;2023-01-06T10:30:02;99884.50;;;6.47;99.58
69842;BME280;57138;51.326;-0.068;2023-01-06T10:32:32;99873.84;;;6.56;99.34
69842;BME280;57138;51.326;-0.068;2023-01-06T10:34:59;99875.00;;;6.61;98.93
69842;BME280;57138;51.326;-0.068;2023-01-06T10:37:36;99883.09;;;6.68;96.95
69842;BME280;57138;51.326;-0.068;2023-01-06T10:42:47;99868.09;;;6.83;97.61
69842;BME280;57138;51.326;-0.068;2023-01-06T10:45:46;99868.38;;;6.89;96.26
69842;BME280;57138;51.326;-0.068;2023-01-06T10:48:22;99864.03;;;6.96;96.55
69842;BME280;57138;51.326;-0.068;2023-01-06T10:50:49;99860.88;;;7.00;97.04
69842;BME280;57138;51.326;-0.068;2023-01-06T10:53:15;99854.38;;;7.03;96.66
69842;BME280;57138;51.326;-0.068;2023-01-06T10:55:52;99854.97;;;7.13;96.94
69842;BME280;57138;51.326;-0.068;2023-01-06T11:01:22;99848.50;;;7.16;95.57
69842;BME280;57138;51.326;-0.068;2023-01-06T11:04:04;99851.16;;;7.16;96.49
69842;BME280;57138;51.326;-0.068;2023-01-06T11:06:32;99863.56;;;7.24;97.38
69842;BME280;57138;51.326;-0.068;2023-01-06T11:09:05;99841.78;;;7.28;96.67
69842;BME280;57138;51.326;-0.068;2023-01-06T11:11:31;99844.72;;;7.33;95.88
69842;BME280;57138;51.326;-0.068;2023-01-06T11:14:01;99841.53;;;7.38;95.07
69842;BME280;57138;51.326;-0.068;2023-01-06T11:16:31;99842.84;;;7.42;95.38
69842;BME280;57138;51.326;-0.068;2023-01-06T11:19:00;99835.78;;;7.49;95.83
69842;BME280;57138;51.326;-0.068;2023-01-06T11:21:56;99831.72;;;7.62;97.17
69842;BME280;57138;51.326;-0.068;2023-01-06T11:24:24;99818.53;;;7.68;96.16
69842;BME280;57138;51.326;-0.068;2023-01-06T11:26:53;99822.25;;;7.82;95.62
69842;BME280;57138;51.326;-0.068;2023-01-06T11:29:28;99812.78;;;7.95;96.01
69842;BME280;57138;51.326;-0.068;2023-01-06T11:31:58;99806.19;;;8.05;96.28
69842;BME280;57138;51.326;-0.068;2023-01-06T11:34:26;99805.94;;;8.15;96.32
69842;BME280;57138;51.326;-0.068;2023-01-06T11:36:53;99799.53;;;8.24;95.84
69842;BME280;57138;51.326;-0.068;2023-01-06T11:39:30;99785.16;;;8.25;92.60
69842;BME280;57138;51.326;-0.068;2023-01-06T11:42:03;99796.50;;;8.27;91.49
69842;BME280;57138;51.326;-0.068;2023-01-06T11:44:40;99792.78;;;8.28;90.78
69842;BME280;57138;51.326;-0.068;2023-01-06T11:49:55;99772.50;;;8.27;92.16
69842;BME280;57138;51.326;-0.068;2023-01-06T11:57:57;99772.03;;;8.24;91.87
69842;BME280;57138;51.326;-0.068;2023-01-06T12:00:50;99777.19;;;8.25;92.77
69842;BME280;57138;51.326;-0.068;2023-01-06T12:03:43;99779.28;;;8.30;93.46
69842;BME280;57138;51.326;-0.068;2023-01-06T12:09:00;99770.13;;;8.33;92.47
69842;BME280;57138;51.326;-0.068;2023-01-06T12:11:49;99771.59;;;8.35;92.43
69842;BME280;57138;51.326;-0.068;2023-01-06T12:14:20;99776.75;;;8.37;91.48
69842;BME280;57138;51.326;-0.068;2023-01-06T12:16:54;99784.53;;;8.38;91.96
69842;BME280;57138;51.326;-0.068;2023-01-06T12:19:30;99755.44;;;8.37;92.71
69842;BME280;57138;51.326;-0.068;2023-01-06T12:21:57;99764.16;;;8.45;92.52
69842;BME280;57138;51.326;-0.068;2023-01-06T12:24:24;99756.88;;;8.39;91.43
69842;BME280;57138;51.326;-0.068;2023-01-06T12:26:51;99748.16;;;8.45;91.38
69842;BME280;57138;51.326;-0.068;2023-01-06T12:29:18;99739.69;;;8.42;89.28
69842;BME280;57138;51.326;-0.068;2023-01-06T12:31:55;99728.53;;;8.47;90.79
69842;BME280;57138;51.326;-0.068;2023-01-06T12:36:54;99724.91;;;8.54;89.68
69842;BME280;57138;51.326;-0.068;2023-01-06T12:39:43;99722.88;;;8.56;90.05
69842;BME280;57138;51.326;-0.068;2023-01-06T12:42:34;99718.75;;;8.54;89.19
69842;BME280;57138;51.326;-0.068;2023-01-06T12:45:18;99720.41;;;8.55;89.58
69842;BME280;57138;51.326;-0.068;2023-01-06T12:47:52;99715.25;;;8.53;89.00
69842;BME280;57138;51.326;-0.068;2023-01-06T12:53:25;99721.75;;;8.66;90.81
69842;BME280;57138;51.326;-0.068;2023-01-06T12:58:49;99704.56;;;8.68;89.53
69842;BME280;57138;51.326;-0.068;2023-01-06T13:01:35;99705.41;;;8.69;89.61
69842;BME280;57138;51.326;-0.068;2023-01-06T13:04:39;99693.34;;;8.73;90.10
69842;BME280;57138;51.326;-0.068;2023-01-06T13:09:59;99685.78;;;8.76;89.05
69842;BME280;57138;51.326;-0.068;2023-01-06T13:15:23;99671.84;;;8.74;89.56
69842;BME280;57138;51.326;-0.068;2023-01-06T13:20:49;99662.81;;;8.75;88.60
69842;BME280;57138;51.326;-0.068;2023-01-06T13:26:21;99670.00;;;8.75;88.93
69842;BME280;57138;51.326;-0.068;2023-01-06T13:37:54;99647.28;;;8.79;89.33
69842;BME280;57138;51.326;-0.068;2023-01-06T13:40:25;99651.38;;;8.81;89.89
69842;BME280;57138;51.326;-0.068;2023-01-06T13:43:01;99636.84;;;8.84;90.31
69842;BME280;57138;51.326;-0.068;2023-01-06T13:45:33;99629.25;;;8.81;90.55
69842;BME280;57138;51.326;-0.068;2023-01-06T13:48:00;99634.19;;;8.84;90.00
69842;BME280;57138;51.326;-0.068;2023-01-06T13:50:35;99616.09;;;8.79;90.04
69842;BME280;57138;51.326;-0.068;2023-01-06T13:53:04;99609.56;;;8.82;90.23
69842;BME280;57138;51.326;-0.068;2023-01-06T13:55:32;99619.38;;;8.81;90.75
69842;BME280;57138;51.326;-0.068;2023-01-06T14:03:44;99627.97;;;8.77;90.48
69842;BME280;57138;51.326;-0.068;2023-01-06T14:06:57;99629.63;;;8.78;91.66
69842;BME280;57138;51.326;-0.068;2023-01-06T14:09:00;99630.91;;;8.82;92.35
69842;BME280;57138;51.326;-0.068;2023-01-06T14:11:29;99620.25;;;8.82;91.79
69842;BME280;57138;51.326;-0.068;2023-01-06T14:14:01;99627.00;;;8.85;92.02
69842;BME280;57138;51.326;-0.068;2023-01-06T14:16:45;99612.25;;;8.82;92.46
69842;BME280;57138;51.326;-0.068;2023-01-06T14:19:29;99621.88;;;8.83;92.73
69842;BME280;57138;51.326;-0.068;2023-01-06T14:24:42;99620.72;;;8.92;93.52
69842;BME280;57138;51.326;-0.068;2023-01-06T14:27:12;99608.03;;;8.94;93.42
69842;BME280;57138;51.326;-0.068;2023-01-06T14:34:43;99594.09;;;8.99;94.29
69842;BME280;57138;51.326;-0.068;2023-01-06T14:37:14;99597.59;;;8.99;94.34
69842;BME280;57138;51.326;-0.068;2023-01-06T14:39:46;99591.63;;;8.97;94.82
69842;BME280;57138;51.326;-0.068;2023-01-06T14:42:19;99584.03;;;8.94;95.29
69842;BME280;57138;51.326;-0.068;2023-01-06T14:44:51;99585.66;;;8.95;95.85
69842;BME280;57138;51.326;-0.068;2023-01-06T14:47:29;99587.94;;;8.98;95.79
69842;BME280;57138;51.326;-0.068;2023-01-06T14:49:56;99590.00;;;8.96;96.65
69842;BME280;57138;51.326;-0.068;2023-01-06T14:53:02;99581.56;;;8.93;97.26
69842;BME280;57138;51.326;-0.068;2023-01-06T14:55:32;99574.78;;;8.90;97.49
69842;BME280;57138;51.326;-0.068;2023-01-06T14:57:59;99575.16;;;8.87;98.56
69842;BME280;57138;51.326;-0.068;2023-01-06T15:00:27;99567.34;;;8.86;98.27
69842;BME280;57138;51.326;-0.068;2023-01-06T15:02:59;99565.31;;;8.88;99.59